Time;durP1;ratioP1;P1;durP2;ratioP2;P2;SDS_P1;SDS_P2;PMS_P1;PMS_P2;Temp;Humidity;BMP_temperature;BMP_pressure;BME280_temperature;BME280_humidity;BME280_pressure;Samples;Min_cycle;Max_cycle;Signal;HPM_P1;HPM_P2
2024/01/18 00:02:22;;;;;;;;;;;;;;;16.34;43.56;100392.06;5057306;28;1997;-58
2024/01/18 00:04:47;;;;;;;;;;;;;;;16.11;43.72;100384.47;5056532;28;1206;-57
2024/01/18 00:07:13;;;;;;;;;;;;;;;17.49;41.17;100376.44;5056281;28;1111;-57
2024/01/18 00:09:39;;;;;;;;;;;;;;;16.42;43.31;100380.50;5057039;28;1041;-56
2024/01/18 00:12:04;;;;;;;;;;;;;;;16.06;44.05;100369.69;5056800;28;1083;-55
2024/01/18 00:14:30;;;;;;;;;;;;;;;15.94;44.01;100363.69;5057195;28;1163;-55
2024/01/18 00:16:56;;;;;;;;;;;;;;;17.49;41.52;100370.97;5056492;28;1162;-56
2024/01/18 00:19:21;;;;;;;;;;;;;;;17.09;41.94;100365.53;5056034;28;1060;-55
2024/01/18 00:21:47;;;;;;;;;;;;;;;16.56;43.40;100360.66;5056804;28;1059;-56
2024/01/18 00:24:12;;;;;;;;;;;;;;;18.20;39.81;100371.31;5056665;28;1979;-56
2024/01/18 00:26:38;;;;;;;;;;;;;;;16.97;42.47;100363.16;5056348;28;1110;-56
2024/01/18 00:29:03;;;;;;;;;;;;;;;16.96;42.64;100361.53;5056143;28;1072;-55
2024/01/18 00:31:29;;;;;;;;;;;;;;;17.50;41.23;100348.69;5056504;28;1135;-56
2024/01/18 00:33:58;;;;;;;;;;;;;;;16.64;42.90;100353.75;5056403;28;1134;-56
2024/01/18 00:36:26;;;;;;;;;;;;;;;16.30;43.38;100343.50;5056993;28;1076;-56
2024/01/18 00:38:52;;;;;;;;;;;;;;;16.24;43.21;100338.06;5056567;28;1211;-57
2024/01/18 00:41:18;;;;;;;;;;;;;;;17.50;41.35;100345.13;5055769;28;1008;-56
2024/01/18 00:43:43;;;;;;;;;;;;;;;17.07;42.02;100341.09;5056637;28;1909;-56
2024/01/18 00:46:09;;;;;;;;;;;;;;;16.39;43.43;100331.66;5056477;28;1171;-56
2024/01/18 00:48:34;;;;;;;;;;;;;;;16.17;43.82;100334.81;5056201;28;1056;-56
2024/01/18 00:51:00;;;;;;;;;;;;;;;17.89;40.53;100322.16;5056269;28;1067;-57
2024/01/18 00:53:26;;;;;;;;;;;;;;;16.73;42.76;100325.41;5055964;28;1075;-56
2024/01/18 00:55:52;;;;;;;;;;;;;;;17.03;42.41;100326.31;5038377;28;1001;-57
2024/01/18 00:58:17;;;;;;;;;;;;;;;17.37;41.33;100319.13;5056335;28;1064;-56
2024/01/18 01:00:43;;;;;;;;;;;;;;;16.61;42.89;100316.72;5056115;28;1156;-56
2024/01/18 01:03:08;;;;;;;;;;;;;;;17.65;41.15;100311.97;5055729;28;1979;-56
2024/01/18 01:05:34;;;;;;;;;;;;;;;16.93;42.36;100310.72;5055577;28;1086;-56
2024/01/18 01:07:59;;;;;;;;;;;;;;;16.50;43.06;100307.72;5038410;28;1138;-56
2024/01/18 01:10:25;;;;;;;;;;;;;;;17.53;41.35;100303.28;5055688;28;1112;-55
2024/01/18 01:12:50;;;;;;;;;;;;;;;17.98;40.27;100292.06;5056234;28;1083;-56
2024/01/18 01:15:16;;;;;;;;;;;;;;;16.86;42.46;100301.16;5062161;28;1302;-57
2024/01/18 01:17:43;;;;;;;;;;;;;;;16.52;43.33;100290.97;5057672;28;989;-57
2024/01/18 01:20:11;;;;;;;;;;;;;;;17.34;41.99;100278.50;5059612;28;1023;-57
2024/01/18 01:22:37;;;;;;;;;;;;;;;17.33;41.54;100277.66;5061156;28;1992;-57
2024/01/18 01:25:03;;;;;;;;;;;;;;;16.55;43.28;100276.66;5059606;28;1091;-57
2024/01/18 01:27:28;;;;;;;;;;;;;;;16.35;43.36;100269.41;5059823;28;1123;-57
2024/01/18 01:29:54;;;;;;;;;;;;;;;16.19;43.33;100271.44;5060063;28;893;-57
2024/01/18 01:32:19;;;;;;;;;;;;;;;17.69;41.00;100266.28;5059106;28;1114;-57
2024/01/18 01:34:45;;;;;;;;;;;;;;;16.82;42.85;100259.72;5059826;28;1072;-57
2024/01/18 01:37:11;;;;;;;;;;;;;;;16.38;43.86;100266.09;5060016;28;1131;-57
2024/01/18 01:39:36;;;;;;;;;;;;;;;17.95;40.42;100258.56;5046737;28;996;-57
2024/01/18 01:42:03;;;;;;;;;;;;;;;16.76;42.91;100250.72;5059424;28;1968;-57
2024/01/18 01:44:28;;;;;;;;;;;;;;;16.38;43.62;100255.94;5060045;28;1020;-57
2024/01/18 01:46:54;;;;;;;;;;;;;;;17.35;41.85;100256.22;5059517;28;1036;-56
2024/01/18 01:49:20;;;;;;;;;;;;;;;16.74;42.76;100250.16;5059551;28;981;-57
2024/01/18 01:51:49;;;;;;;;;;;;;;;16.37;43.33;100250.75;5059605;28;1156;-56
2024/01/18 01:54:14;;;;;;;;;;;;;;;17.90;40.82;100253.09;5058984;28;1151;-57
2024/01/18 01:56:40;;;;;;;;;;;;;;;16.92;42.49;100254.16;5059198;28;1059;-57
2024/01/18 01:59:08;;;;;;;;;;;;;;;16.34;43.77;100246.63;5041771;28;1122;-57
2024/01/18 02:01:33;;;;;;;;;;;;;;;16.71;43.13;100245.25;5058573;28;1339;-56
2024/01/18 02:03:59;;;;;;;;;;;;;;;17.78;40.44;100230.69;5059333;28;1917;-57
2024/01/18 02:06:24;;;;;;;;;;;;;;;16.70;43.04;100238.09;5058832;28;1063;-57
2024/01/18 02:08:50;;;;;;;;;;;;;;;16.41;43.28;100224.34;5058786;28;1053;-57
2024/01/18 02:11:16;;;;;;;;;;;;;;;16.13;43.58;100226.75;5041493;28;1168;-56
2024/01/18 02:13:41;;;;;;;;;;;;;;;17.67;41.25;100224.53;5058752;28;1096;-57
2024/01/18 02:16:07;;;;;;;;;;;;;;;16.82;42.88;100223.22;5041220;28;1147;-55
2024/01/18 02:18:35;;;;;;;;;;;;;;;16.29;43.79;100215.69;5059093;28;845;-55
2024/01/18 02:21:00;;;;;;;;;;;;;;;16.13;43.89;100212.19;5059234;28;1156;-55
2024/01/18 02:23:26;;;;;;;;;;;;;;;17.42;41.71;100214.66;5058483;28;1979;-56
2024/01/18 02:25:51;;;;;;;;;;;;;;;17.31;41.77;100207.66;5059126;28;1045;-55
2024/01/18 02:28:17;;;;;;;;;;;;;;;16.42;43.48;100210.38;5058761;28;1067;-56
2024/01/18 02:30:43;;;;;;;;;;;;;;;18.12;40.25;100200.25;5058274;28;1100;-55
2024/01/18 02:33:08;;;;;;;;;;;;;;;16.98;42.46;100204.69;5058221;28;1028;-56
2024/01/18 02:35:34;;;;;;;;;;;;;;;16.52;43.29;100198.50;5058952;28;1293;-56
2024/01/18 02:37:59;;;;;;;;;;;;;;;16.72;43.22;100188.44;5058433;28;1016;-57
2024/01/18 02:40:25;;;;;;;;;;;;;;;17.73;40.96;100187.59;5058575;28;992;-57
2024/01/18 02:42:50;;;;;;;;;;;;;;;16.67;43.08;100180.25;5041054;28;1906;-57
2024/01/18 02:45:16;;;;;;;;;;;;;;;16.33;43.55;100181.09;5040758;28;1038;-56
2024/01/18 02:47:42;;;;;;;;;;;;;;;17.72;40.88;100185.13;5058164;28;1024;-56
2024/01/18 02:50:07;;;;;;;;;;;;;;;16.57;43.46;100164.69;5041031;28;1186;-56
2024/01/18 02:52:33;;;;;;;;;;;;;;;16.39;43.37;100177.97;5058633;28;1036;-57
2024/01/18 02:54:59;;;;;;;;;;;;;;;17.43;41.89;100164.88;5057754;28;1416;-57
2024/01/18 02:57:25;;;;;;;;;;;;;;;17.13;42.31;100168.81;5058401;28;1115;-54
2024/01/18 02:59:50;;;;;;;;;;;;;;;16.54;43.34;100163.31;5058165;28;1048;-57
2024/01/18 03:02:16;;;;;;;;;;;;;;;18.03;40.41;100162.72;5057786;28;1898;-57
2024/01/18 03:04:42;;;;;;;;;;;;;;;16.90;42.88;100162.19;5057755;28;1126;-57
2024/01/18 03:07:08;;;;;;;;;;;;;;;16.47;43.40;100153.81;5057877;28;943;-57
2024/01/18 03:09:33;;;;;;;;;;;;;;;17.33;42.17;100153.19;5057905;28;1071;-57
2024/01/18 03:11:59;;;;;;;;;;;;;;;17.22;42.23;100152.50;5058266;28;1060;-57
2024/01/18 03:14:24;;;;;;;;;;;;;;;16.54;43.58;100148.78;5057875;28;1289;-57
2024/01/18 03:16:50;;;;;;;;;;;;;;;17.24;42.12;100153.84;5057596;28;1007;-56
2024/01/18 03:19:16;;;;;;;;;;;;;;;17.44;41.63;100151.94;5057535;28;1107;-57
2024/01/18 03:21:41;;;;;;;;;;;;;;;16.70;43.07;100143.97;5058187;28;1159;-57
2024/01/18 03:24:07;;;;;;;;;;;;;;;17.04;42.78;100157.66;5057376;28;1990;-57
2024/01/18 03:26:33;;;;;;;;;;;;;;;18.19;39.92;100147.63;5057557;28;1662;-57
2024/01/18 03:28:58;;;;;;;;;;;;;;;16.99;42.42;100146.72;5057493;28;1405;-56
2024/01/18 03:31:24;;;;;;;;;;;;;;;16.53;43.35;100150.69;5057081;28;892;-57
2024/01/18 03:33:50;;;;;;;;;;;;;;;18.13;40.19;100137.78;5040064;28;1187;-57
2024/01/18 03:36:15;;;;;;;;;;;;;;;16.96;42.69;100146.47;5057427;28;1053;-56
2024/01/18 03:38:41;;;;;;;;;;;;;;;16.55;43.42;100136.69;5057426;28;1106;-57
2024/01/18 03:41:06;;;;;;;;;;;;;;;16.55;43.61;100143.00;5057640;28;1132;-57
2024/01/18 03:43:32;;;;;;;;;;;;;;;17.89;40.62;100135.09;5055781;28;1910;-57
2024/01/18 03:45:58;;;;;;;;;;;;;;;16.79;42.95;100141.41;5057000;28;1130;-57
2024/01/18 03:48:23;;;;;;;;;;;;;;;16.40;43.64;100135.72;5039406;28;1075;-57
2024/01/18 03:50:49;;;;;;;;;;;;;;;16.32;43.55;100130.84;5057481;28;1085;-57
2024/01/18 03:53:14;;;;;;;;;;;;;;;18.06;40.63;100129.09;5056959;28;1060;-57
2024/01/18 03:55:41;;;;;;;;;;;;;;;16.89;42.49;100130.34;5056909;28;850;-56
2024/01/18 03:58:06;;;;;;;;;;;;;;;16.41;43.49;100126.41;5057468;28;1051;-57
2024/01/18 04:00:32;;;;;;;;;;;;;;;17.38;41.82;100131.97;5056771;28;1135;-57
2024/01/18 04:02:58;;;;;;;;;;;;;;;16.67;43.28;100126.16;5056807;28;1909;-57
2024/01/18 04:05:23;;;;;;;;;;;;;;;16.26;43.74;100118.31;5057445;28;1173;-57
2024/01/18 04:07:49;;;;;;;;;;;;;;;17.92;40.52;100120.78;5056294;28;1107;-57
2024/01/18 04:10:14;;;;;;;;;;;;;;;16.72;42.88;100120.59;5057490;28;1188;-57
2024/01/18 04:12:40;;;;;;;;;;;;;;;16.32;43.64;100122.63;5059595;28;1220;-55
2024/01/18 04:15:06;;;;;;;;;;;;;;;16.40;43.63;100123.94;5069482;28;1299;-56
2024/01/18 04:17:31;;;;;;;;;;;;;;;17.77;41.13;100116.31;5048496;28;1051;-52
2024/01/18 04:19:57;;;;;;;;;;;;;;;16.76;43.04;100118.13;5045131;28;1020;-56
2024/01/18 04:22:23;;;;;;;;;;;;;;;16.26;43.66;100118.31;5044898;28;1910;-59
2024/01/18 04:24:48;;;;;;;;;;;;;;;17.46;41.91;100116.75;5071148;28;1627;-57
2024/01/18 04:27:14;;;;;;;;;;;;;;;17.07;42.29;100118.59;5062121;28;1053;-55
2024/01/18 04:29:39;;;;;;;;;;;;;;;16.40;43.68;100111.03;5049470;28;2885;-59
2024/01/18 04:32:05;;;;;;;;;;;;;;;16.53;43.87;100119.69;5038426;28;2007;-60
2024/01/18 04:34:30;;;;;;;;;;;;;;;17.49;41.54;100112.56;5056602;28;2242;-60
2024/01/18 04:36:57;;;;;;;;;;;;;;;16.57;43.57;100112.53;5056257;28;2157;-58
2024/01/18 04:39:22;;;;;;;;;;;;;;;18.23;40.24;100117.53;5064046;28;2081;-55
2024/01/18 04:41:48;;;;;;;;;;;;;;;17.38;41.76;100104.47;5058655;28;1854;-59
2024/01/18 04:44:13;;;;;;;;;;;;;;;16.76;42.89;100107.13;5055266;28;1985;-57
2024/01/18 04:46:39;;;;;;;;;;;;;;;16.46;43.13;100113.75;5055185;28;1509;-58
2024/01/18 04:49:05;;;;;;;;;;;;;;;16.57;43.40;100112.53;5056030;28;1114;-61
2024/01/18 04:51:30;;;;;;;;;;;;;;;17.29;41.74;100114.47;5055885;28;1043;-53
2024/01/18 04:53:56;;;;;;;;;;;;;;;16.59;43.34;100113.88;5056040;28;1083;-53
2024/01/18 04:56:21;;;;;;;;;;;;;;;17.08;42.56;100113.91;5052301;28;1112;-52
2024/01/18 04:58:47;;;;;;;;;;;;;;;16.92;42.84;100111.34;5062729;28;1306;-50
2024/01/18 05:01:13;;;;;;;;;;;;;;;16.32;43.70;100111.66;5058309;28;1357;-49
2024/01/18 05:03:38;;;;;;;;;;;;;;;17.85;41.03;100110.16;5055774;28;1906;-47
2024/01/18 05:06:05;;;;;;;;;;;;;;;16.63;43.50;100118.78;5055866;28;1088;-47
2024/01/18 05:08:31;;;;;;;;;;;;;;;16.32;43.58;100103.41;5055057;28;920;-48
2024/01/18 05:10:57;;;;;;;;;;;;;;;17.34;42.02;100108.94;5055449;28;1112;-51
2024/01/18 05:13:22;;;;;;;;;;;;;;;16.56;43.34;100110.88;5055101;28;2234;-45
2024/01/18 05:15:48;;;;;;;;;;;;;;;16.21;44.04;100094.44;5055722;28;1012;-47
2024/01/18 05:18:14;;;;;;;;;;;;;;;17.75;41.18;100089.13;5055743;28;1040;-48
2024/01/18 05:20:39;;;;;;;;;;;;;;;17.22;41.88;100084.63;5055285;28;902;-50
2024/01/18 05:23:06;;;;;;;;;;;;;;;16.53;43.56;100097.75;5055491;28;1922;-53
2024/01/18 05:25:32;;;;;;;;;;;;;;;16.34;43.95;100093.00;5055194;28;1056;-55
2024/01/18 05:27:58;;;;;;;;;;;;;;;16.13;44.23;100088.78;5055822;28;1534;-55
2024/01/18 05:30:23;;;;;;;;;;;;;;;15.89;44.68;100082.13;5055213;28;1023;-54
2024/01/18 05:32:49;;;;;;;;;;;;;;;15.70;45.26;100087.41;5055634;28;925;-54
2024/01/18 05:35:15;;;;;;;;;;;;;;;15.56;45.58;100083.69;5051822;28;1282;-53
2024/01/18 05:37:40;;;;;;;;;;;;;;;15.34;45.89;100087.63;5056045;28;1036;-49
2024/01/18 05:40:09;;;;;;;;;;;;;;;15.24;46.29;100079.47;5055573;28;1059;-55
2024/01/18 05:42:34;;;;;;;;;;;;;;;15.91;44.88;100079.09;5058714;28;1980;-50
2024/01/18 05:45:00;;;;;;;;;;;;;;;17.28;41.53;100077.94;5055169;28;1068;-53
2024/01/18 05:47:26;;;;;;;;;;;;;;;16.26;43.81;100079.91;5055684;28;1101;-52
2024/01/18 05:49:51;;;;;;;;;;;;;;;15.78;44.97;100074.22;5055035;28;1059;-46
2024/01/18 05:52:17;;;;;;;;;;;;;;;15.57;45.36;100077.06;5055170;28;1151;-49
2024/01/18 05:54:43;;;;;;;;;;;;;;;15.36;45.57;100073.66;5047524;28;1327;-52
2024/01/18 05:57:09;;;;;;;;;;;;;;;16.79;42.81;100067.25;5055519;28;1135;-52
2024/01/18 05:59:34;;;;;;;;;;;;;;;17.10;41.59;100065.00;5055414;28;1031;-51
2024/01/18 06:02:00;;;;;;;;;;;;;;;16.16;43.88;100064.34;5054339;28;1141;-52
2024/01/18 06:04:25;;;;;;;;;;;;;;;15.76;44.75;100065.47;5046800;28;1979;-49
2024/01/18 06:06:51;;;;;;;;;;;;;;;15.49;45.29;100066.75;5039695;28;1032;-50
2024/01/18 06:09:18;;;;;;;;;;;;;;;15.32;45.85;100064.34;5058084;28;858;-51
2024/01/18 06:11:44;;;;;;;;;;;;;;;16.75;42.62;100067.06;5058736;28;1163;-47
2024/01/18 06:14:10;;;;;;;;;;;;;;;17.13;41.49;100064.41;5058643;28;1254;-46
2024/01/18 06:16:35;;;;;;;;;;;;;;;16.10;44.07;100065.47;5058731;28;1063;-49
2024/01/18 06:19:01;;;;;;;;;;;;;;;15.78;44.72;100066.81;5049103;28;1127;-49
2024/01/18 06:21:26;;;;;;;;;;;;;;;15.56;45.29;100067.25;5058453;28;1086;-51
2024/01/18 06:23:52;;;;;;;;;;;;;;;16.16;44.15;100067.09;5058772;28;1902;-50
2024/01/18 06:26:17;;;;;;;;;;;;;;;17.49;40.77;100061.19;5059388;28;1012;-49
2024/01/18 06:28:43;;;;;;;;;;;;;;;16.71;42.62;100064.06;5058353;28;1044;-49
2024/01/18 06:31:09;;;;;;;;;;;;;;;16.04;44.19;100061.97;5058338;28;1250;-49
2024/01/18 06:33:34;;;;;;;;;;;;;;;15.70;45.09;100068.22;5058477;28;1122;-48
2024/01/18 06:36:00;;;;;;;;;;;;;;;15.42;45.59;100061.56;5058615;28;1012;-48
2024/01/18 06:38:26;;;;;;;;;;;;;;;15.25;45.91;100056.47;5058921;28;1084;-50
2024/01/18 06:40:52;;;;;;;;;;;;;;;16.72;42.46;100057.47;5040479;28;1064;-52
2024/01/18 06:43:17;;;;;;;;;;;;;;;17.38;41.15;100056.94;5058045;28;1897;-53
2024/01/18 06:45:43;;;;;;;;;;;;;;;16.30;43.22;100061.75;5059007;28;1123;-49
2024/01/18 06:48:09;;;;;;;;;;;;;;;15.78;44.76;100053.13;5058663;28;1068;-50
2024/01/18 06:50:35;;;;;;;;;;;;;;;15.47;45.32;100050.56;5058609;28;1012;-48
2024/01/18 06:53:02;;;;;;;;;;;;;;;15.36;45.80;100046.25;5058453;28;1114;-49
2024/01/18 06:55:28;;;;;;;;;;;;;;;16.66;42.75;100044.09;5057999;28;1047;-46
2024/01/18 06:57:54;;;;;;;;;;;;;;;17.29;41.15;100040.28;5057930;28;1082;-50
2024/01/18 07:00:19;;;;;;;;;;;;;;;16.17;43.56;100049.53;5058600;28;1059;-52
2024/01/18 07:02:48;;;;;;;;;;;;;;;15.73;45.02;100048.47;5058494;28;1901;-51
2024/01/18 07:05:13;;;;;;;;;;;;;;;15.51;45.43;100048.91;5058114;28;1122;-48
2024/01/18 07:07:39;;;;;;;;;;;;;;;15.37;45.64;100037.75;5058354;28;1084;-50
2024/01/18 07:10:05;;;;;;;;;;;;;;;16.98;41.95;100040.69;5058898;28;1222;-50
2024/01/18 07:12:32;;;;;;;;;;;;;;;17.08;41.51;100037.84;5057273;28;1091;-47
2024/01/18 07:14:58;;;;;;;;;;;;;;;16.09;43.97;100036.44;5057814;28;1051;-47
2024/01/18 07:17:23;;;;;;;;;;;;;;;15.71;44.92;100031.50;5058002;28;1135;-49
2024/01/18 07:19:49;;;;;;;;;;;;;;;15.51;45.19;100034.38;5057575;28;1154;-48
2024/01/18 07:22:15;;;;;;;;;;;;;;;15.28;45.94;100033.97;5057738;28;1905;-49
2024/01/18 07:24:41;;;;;;;;;;;;;;;16.90;42.14;100025.72;5057722;28;1048;-49
2024/01/18 07:27:09;;;;;;;;;;;;;;;17.02;41.80;100021.72;5057706;28;1040;-52
2024/01/18 07:29:35;;;;;;;;;;;;;;;15.97;44.06;100023.09;5057703;28;1118;-53
2024/01/18 07:32:01;;;;;;;;;;;;;;;15.62;45.00;100021.44;5057678;28;1072;-50
2024/01/18 07:34:27;;;;;;;;;;;;;;;15.45;45.53;100028.13;5056886;28;964;-52
2024/01/18 07:36:54;;;;;;;;;;;;;;;15.59;45.15;100024.75;5058064;28;1163;-51
2024/01/18 07:39:20;;;;;;;;;;;;;;;17.14;41.69;100019.34;5057531;28;1039;-54
2024/01/18 07:41:45;;;;;;;;;;;;;;;16.58;42.62;100020.84;5057286;28;1124;-51
2024/01/18 07:44:11;;;;;;;;;;;;;;;15.86;44.31;100021.53;5056967;28;1909;-49
2024/01/18 07:46:37;;;;;;;;;;;;;;;15.57;45.34;100022.28;5057352;28;1056;-52
2024/01/18 07:49:03;;;;;;;;;;;;;;;15.54;45.30;100018.22;5057176;28;1155;-50
2024/01/18 07:51:29;;;;;;;;;;;;;;;15.73;44.92;100010.09;5057836;28;1156;-46
2024/01/18 07:53:54;;;;;;;;;;;;;;;17.19;41.93;100007.47;5057420;28;1151;-50
2024/01/18 07:56:20;;;;;;;;;;;;;;;16.78;42.69;100006.06;5056951;28;1103;-49
2024/01/18 07:58:47;;;;;;;;;;;;;;;15.96;44.22;100002.25;5057159;28;1199;-50
2024/01/18 08:01:16;;;;;;;;;;;;;;;15.70;44.85;100007.94;5057567;28;1183;-49
2024/01/18 08:03:42;;;;;;;;;;;;;;;15.38;45.85;100013.94;5056801;28;1901;-51
2024/01/18 08:06:08;;;;;;;;;;;;;;;15.16;46.34;100011.59;5057385;28;1155;-51
2024/01/18 08:08:33;;;;;;;;;;;;;;;16.72;42.74;100005.31;5056945;28;2430;-52
2024/01/18 08:10:59;;;;;;;;;;;;;;;17.34;41.23;100000.94;5056936;28;1203;-50
2024/01/18 08:13:25;;;;;;;;;;;;;;;16.18;43.78;99996.28;5056932;28;1127;-51
2024/01/18 08:15:51;;;;;;;;;;;;;;;15.76;44.84;99994.19;5039009;28;1117;-53
2024/01/18 08:18:17;;;;;;;;;;;;;;;15.47;45.35;99986.75;5057226;28;1056;-45
2024/01/18 08:20:43;;;;;;;;;;;;;;;15.27;46.19;99980.28;5055940;28;1055;-51
2024/01/18 08:23:10;;;;;;;;;;;;;;;16.85;42.75;99989.22;5056885;28;1988;-51
2024/01/18 08:25:36;;;;;;;;;;;;;;;17.31;41.22;99977.63;5056757;28;1110;-53
2024/01/18 08:28:01;;;;;;;;;;;;;;;16.24;43.80;99973.19;5056041;28;1032;-52
2024/01/18 08:30:27;;;;;;;;;;;;;;;15.79;44.67;99975.25;5056433;28;1082;-55
2024/01/18 08:32:53;;;;;;;;;;;;;;;15.54;45.26;99968.03;5056166;28;1319;-53
2024/01/18 08:35:18;;;;;;;;;;;;;;;15.26;46.05;99981.41;5051202;28;1015;-52
2024/01/18 08:37:45;;;;;;;;;;;;;;;15.89;44.83;99974.34;5052599;28;1306;-56
2024/01/18 08:40:12;;;;;;;;;;;;;;;17.29;41.54;99960.59;5055521;28;1574;-52
2024/01/18 08:42:37;;;;;;;;;;;;;;;16.82;42.39;99962.38;5056362;28;1914;-51
2024/01/18 08:45:04;;;;;;;;;;;;;;;15.97;44.27;99959.22;5055813;28;1152;-56
2024/01/18 08:47:29;;;;;;;;;;;;;;;15.71;44.79;99960.25;5056080;28;1135;-58
2024/01/18 08:49:55;;;;;;;;;;;;;;;15.47;45.45;99959.34;5037821;28;1349;-54
2024/01/18 08:52:21;;;;;;;;;;;;;;;15.80;45.10;99963.19;5056551;28;1060;-59
2024/01/18 08:54:47;;;;;;;;;;;;;;;17.25;41.70;99957.66;5056105;28;1092;-53
2024/01/18 08:57:13;;;;;;;;;;;;;;;16.45;43.10;99955.69;5055653;28;1138;-53
2024/01/18 08:59:38;;;;;;;;;;;;;;;15.88;44.73;99946.13;5056119;28;1152;-53
2024/01/18 09:02:04;;;;;;;;;;;;;;;15.56;45.39;99952.97;5056299;28;1080;-52
2024/01/18 09:04:29;;;;;;;;;;;;;;;15.42;45.61;99945.66;5055845;28;1917;-54
2024/01/18 09:06:55;;;;;;;;;;;;;;;16.57;43.18;99945.09;5054681;28;1511;-53
2024/01/18 09:09:21;;;;;;;;;;;;;;;17.31;41.20;99939.16;5055237;28;1095;-50
2024/01/18 09:11:46;;;;;;;;;;;;;;;16.21;43.91;99940.03;5055593;28;1091;-52
2024/01/18 09:14:12;;;;;;;;;;;;;;;15.83;44.65;99929.72;5055832;28;1067;-55
2024/01/18 09:16:38;;;;;;;;;;;;;;;15.58;45.43;99928.00;5055743;28;1091;-51
2024/01/18 09:19:03;;;;;;;;;;;;;;;15.59;45.62;99918.69;5055746;28;1040;-53
2024/01/18 09:21:29;;;;;;;;;;;;;;;17.15;41.97;99913.03;5055751;28;1140;-55
2024/01/18 09:23:54;;;;;;;;;;;;;;;16.73;42.51;99908.13;5056117;28;1986;-56
2024/01/18 09:26:21;;;;;;;;;;;;;;;15.94;44.44;99900.28;5055228;28;1071;-58
2024/01/18 09:28:47;;;;;;;;;;;;;;;15.69;45.20;99895.84;5055440;28;1000;-51
2024/01/18 09:31:13;;;;;;;;;;;;;;;15.42;45.72;99896.34;5055838;28;1333;-49
2024/01/18 09:33:39;;;;;;;;;;;;;;;15.36;46.07;99898.31;5054450;28;1051;-54
2024/01/18 09:36:05;;;;;;;;;;;;;;;16.85;42.76;99898.63;5054282;28;996;-53
2024/01/18 09:38:31;;;;;;;;;;;;;;;17.12;41.90;99891.66;5055164;28;1157;-55
2024/01/18 09:40:59;;;;;;;;;;;;;;;16.11;44.03;99893.53;5058013;28;1040;-52
2024/01/18 09:43:24;;;;;;;;;;;;;;;15.69;45.21;99893.91;5041922;28;1914;-54
2024/01/18 09:45:50;;;;;;;;;;;;;;;15.50;45.76;99885.63;5041812;28;1162;-53
2024/01/18 09:48:15;;;;;;;;;;;;;;;15.51;45.56;99878.22;5041822;28;1080;-54
2024/01/18 09:50:44;;;;;;;;;;;;;;;17.05;42.30;99875.56;5059538;28;1100;-53
2024/01/18 09:53:11;;;;;;;;;;;;;;;17.04;42.17;99874.75;5059542;28;1071;-50
2024/01/18 09:55:36;;;;;;;;;;;;;;;16.12;44.03;99860.34;5059491;28;1175;-50
2024/01/18 09:58:02;;;;;;;;;;;;;;;15.68;45.37;99851.19;5058955;28;1423;-51
2024/01/18 10:00:27;;;;;;;;;;;;;;;15.43;46.00;99841.31;5059532;28;1219;-54
2024/01/18 10:02:53;;;;;;;;;;;;;;;15.30;46.31;99847.44;5041238;28;1922;-54
2024/01/18 10:05:18;;;;;;;;;;;;;;;16.87;42.64;99844.22;5059771;28;1131;-53
2024/01/18 10:07:44;;;;;;;;;;;;;;;17.40;41.24;99843.94;5058983;28;1301;-51
2024/01/18 10:10:13;;;;;;;;;;;;;;;16.24;43.78;99829.72;5058968;28;916;-52
2024/01/18 10:12:40;;;;;;;;;;;;;;;15.79;44.97;99829.16;5058187;28;1098;-52
2024/01/18 10:15:06;;;;;;;;;;;;;;;15.58;45.40;99834.84;5039421;28;1123;-49
2024/01/18 10:17:31;;;;;;;;;;;;;;;15.40;46.04;99831.75;5058867;28;1139;-50
2024/01/18 10:19:57;;;;;;;;;;;;;;;15.52;45.96;99825.06;5057575;28;1064;-53
2024/01/18 10:22:23;;;;;;;;;;;;;;;17.07;42.10;99818.41;5055857;28;1901;-50
2024/01/18 10:24:52;;;;;;;;;;;;;;;16.94;42.45;99808.97;5058754;28;1035;-51
2024/01/18 10:27:21;;;;;;;;;;;;;;;16.05;44.24;99805.84;5041290;28;1009;-52
2024/01/18 10:29:46;;;;;;;;;;;;;;;15.67;45.39;99800.22;5058124;28;1102;-52
2024/01/18 10:32:13;;;;;;;;;;;;;;;15.47;45.91;99801.25;5056161;28;1048;-51
2024/01/18 10:34:38;;;;;;;;;;;;;;;16.25;44.24;99792.97;5054366;28;1032;-49
2024/01/18 10:37:04;;;;;;;;;;;;;;;17.43;41.41;99785.63;5058635;28;1309;-51
2024/01/18 10:39:39;;;;;;;;;;;;;;;16.40;43.53;99783.72;5058481;28;1212;-50
2024/01/18 10:42:07;;;;;;;;;;;;;;;15.88;45.10;99783.56;5058912;28;1223;-51
2024/01/18 10:44:37;;;;;;;;;;;;;;;15.60;45.60;99768.78;5056191;28;1993;-50
2024/01/18 10:47:12;;;;;;;;;;;;;;;15.45;45.88;99770.59;5055560;28;838;-52
2024/01/18 10:49:38;;;;;;;;;;;;;;;17.06;42.39;99761.84;5058546;28;1102;-52
2024/01/18 10:52:07;;;;;;;;;;;;;;;16.99;42.43;99753.97;5040196;28;1088;-51
2024/01/18 10:54:33;;;;;;;;;;;;;;;16.14;44.59;99742.91;5058167;28;1040;-49
2024/01/18 10:56:59;;;;;;;;;;;;;;;15.85;45.17;99753.97;5057895;28;1637;-48
2024/01/18 10:59:29;;;;;;;;;;;;;;;15.67;45.75;99747.31;5044166;28;953;-51
2024/01/18 11:01:55;;;;;;;;;;;;;;;15.40;46.50;99740.50;5057987;28;1208;-50
2024/01/18 11:04:20;;;;;;;;;;;;;;;15.99;44.87;99735.72;5040764;28;1957;-54
2024/01/18 11:06:46;;;;;;;;;;;;;;;17.36;41.86;99727.50;5058831;28;1135;-53
2024/01/18 11:09:12;;;;;;;;;;;;;;;16.63;43.13;99724.34;5040253;28;1172;-54
2024/01/18 11:11:39;;;;;;;;;;;;;;;16.02;44.75;99721.41;5037390;28;998;-51
2024/01/18 11:14:04;;;;;;;;;;;;;;;15.70;45.63;99711.13;5047168;28;1060;-54
2024/01/18 11:16:30;;;;;;;;;;;;;;;15.44;46.33;99713.34;5040198;28;1061;-53
2024/01/18 11:18:59;;;;;;;;;;;;;;;15.43;46.21;99706.22;5058125;28;1048;-53
2024/01/18 11:21:37;;;;;;;;;;;;;;;17.06;42.53;99699.47;5057283;28;1059;-56
2024/01/18 11:24:08;;;;;;;;;;;;;;;16.92;42.61;99695.88;5057162;28;1906;-52
2024/01/18 11:26:34;;;;;;;;;;;;;;;16.04;44.66;99694.50;5057559;28;1040;-55
2024/01/18 11:29:15;;;;;;;;;;;;;;;15.66;45.81;99690.91;5057220;28;878;-53
2024/01/18 11:31:43;;;;;;;;;;;;;;;15.55;45.88;99692.94;5056893;28;1132;-54
2024/01/18 11:34:15;;;;;;;;;;;;;;;15.43;46.57;99684.31;5044604;28;1049;-56
2024/01/18 11:36:46;;;;;;;;;;;;;;;17.07;42.63;99687.38;5057761;28;1115;-55
2024/01/18 11:39:11;;;;;;;;;;;;;;;16.93;42.60;99689.28;5057349;28;1075;-56
2024/01/18 11:41:37;;;;;;;;;;;;;;;16.12;44.67;99675.75;5057670;28;1191;-57
2024/01/18 11:44:10;;;;;;;;;;;;;;;15.84;45.26;99662.72;5039538;28;1914;-57
2024/01/18 11:46:39;;;;;;;;;;;;;;;15.54;46.04;99663.91;5057024;28;1101;-57
2024/01/18 11:49:05;;;;;;;;;;;;;;;15.36;46.69;99652.63;5057033;28;1115;-55
2024/01/18 11:51:30;;;;;;;;;;;;;;;15.76;45.75;99654.31;5056282;28;1250;-56
2024/01/18 11:53:58;;;;;;;;;;;;;;;17.22;42.47;99657.97;5038807;28;1278;-55
2024/01/18 11:56:23;;;;;;;;;;;;;;;16.78;43.38;99657.41;5056552;28;1171;-55
2024/01/18 11:58:52;;;;;;;;;;;;;;;16.02;44.86;99658.34;5056276;28;1513;-55
2024/01/18 12:01:19;;;;;;;;;;;;;;;15.66;45.93;99655.28;5038769;28;1013;-54
2024/01/18 12:03:45;;;;;;;;;;;;;;;15.48;46.54;99654.94;5056002;28;1977;-55
2024/01/18 12:06:10;;;;;;;;;;;;;;;15.33;46.67;99664.19;5056944;28;1215;-54
2024/01/18 12:08:36;;;;;;;;;;;;;;;16.87;43.42;99657.50;5056180;28;1178;-55
2024/01/18 12:11:02;;;;;;;;;;;;;;;17.22;42.17;99649.72;5038576;28;1135;-50
2024/01/18 12:13:29;;;;;;;;;;;;;;;16.19;44.86;99648.78;5056851;28;1131;-45
2024/01/18 12:15:54;;;;;;;;;;;;;;;15.87;45.87;99653.09;5056104;28;1115;-48
2024/01/18 12:18:20;;;;;;;;;;;;;;;15.62;46.47;99644.06;5055982;28;1494;-49
2024/01/18 12:20:45;;;;;;;;;;;;;;;15.33;47.09;99653.22;5056921;28;1206;-49
2024/01/18 12:23:16;;;;;;;;;;;;;;;16.29;45.11;99640.38;5056069;28;1905;-51
2024/01/18 12:25:43;;;;;;;;;;;;;;;17.43;42.21;99645.47;5056618;28;1013;-53
2024/01/18 12:28:08;;;;;;;;;;;;;;;16.35;44.78;99647.41;5056420;28;1227;-52
2024/01/18 12:30:34;;;;;;;;;;;;;;;15.86;45.61;99648.72;5051961;28;1079;-50
2024/01/18 12:32:59;;;;;;;;;;;;;;;15.62;46.23;99644.06;5038669;28;1262;-48
2024/01/18 12:35:25;;;;;;;;;;;;;;;15.43;46.63;99638.59;5056161;28;1016;-50
2024/01/18 12:37:50;;;;;;;;;;;;;;;15.91;45.90;99632.19;5023972;28;1055;-52
2024/01/18 12:40:16;;;;;;;;;;;;;;;17.28;42.64;99635.59;5056285;28;1111;-52
2024/01/18 12:42:42;;;;;;;;;;;;;;;16.67;43.59;99632.03;5056071;28;1895;-53
2024/01/18 12:45:07;;;;;;;;;;;;;;;16.06;45.45;99637.44;5055802;28;1108;-52